Time;durP1;ratioP1;P1;durP2;ratioP2;P2;SDS_P1;SDS_P2;PMS_P1;PMS_P2;Temp;Humidity;BMP_temperature;BMP_pressure;BME280_temperature;BME280_humidity;BME280_pressure;Samples;Min_cycle;Max_cycle;Signal;HPM_P1;HPM_P2
2023/09/06 00:00:55;;;;;;;12.82;5.22;;;;;;;18.53;100.00;101751.75;5069242;28;20083;-62
2023/09/06 00:03:26;;;;;;;8.43;4.45;;;;;;;18.50;100.00;101751.97;5068785;28;20052;-62
2023/09/06 00:05:55;;;;;;;9.93;5.15;;;;;;;18.41;100.00;101749.13;5068730;28;20924;-62
2023/09/06 00:08:25;;;;;;;8.35;4.45;;;;;;;18.46;100.00;101748.75;5066882;28;20048;-63
2023/09/06 00:10:54;;;;;;;7.60;4.32;;;;;;;18.38;100.00;101744.06;5068584;28;20431;-63
2023/09/06 00:13:22;;;;;;;7.22;4.30;;;;;;;18.36;100.00;101745.16;5069121;28;20040;-63
2023/09/06 00:15:51;;;;;;;9.23;4.50;;;;;;;18.33;100.00;101742.75;5068671;28;20442;-63
2023/09/06 00:18:20;;;;;;;6.15;4.15;;;;;;;18.26;100.00;101739.75;5068816;28;20831;-63
2023/09/06 00:20:48;;;;;;;7.28;4.47;;;;;;;18.21;100.00;101734.81;5068856;28;20049;-63
2023/09/06 00:23:18;;;;;;;9.68;4.30;;;;;;;18.16;100.00;101729.03;5066537;28;20049;-63
2023/09/06 00:25:48;;;;;;;7.15;3.72;;;;;;;18.10;100.00;101736.69;5068038;28;20056;-63
2023/09/06 00:28:19;;;;;;;7.20;4.00;;;;;;;18.12;100.00;101726.75;5068663;28;20045;-63
2023/09/06 00:30:47;;;;;;;8.10;3.95;;;;;;;18.11;100.00;101733.06;5068421;28;20066;-63
2023/09/06 00:33:16;;;;;;;7.15;4.53;;;;;;;18.07;100.00;101727.97;5068047;28;20052;-63
2023/09/06 00:35:44;;;;;;;6.93;3.97;;;;;;;18.01;100.00;101722.31;5067603;28;20411;-63
2023/09/06 00:38:15;;;;;;;6.32;3.70;;;;;;;18.01;100.00;101723.19;5066385;28;20050;-63
2023/09/06 00:40:50;;;;;;;7.57;4.25;;;;;;;17.99;100.00;101725.13;5070674;28;20054;-63
2023/09/06 00:43:19;;;;;;;9.00;4.22;;;;;;;17.98;100.00;101719.91;5072264;28;20041;-63
2023/09/06 00:45:51;;;;;;;8.33;4.60;;;;;;;17.89;100.00;101722.34;5071174;28;20513;-63
2023/09/06 00:48:23;;;;;;;9.27;4.40;;;;;;;17.89;100.00;101724.16;5066605;28;20461;-63
2023/09/06 00:50:55;;;;;;;7.20;4.13;;;;;;;17.78;100.00;101717.06;5067500;28;20717;-63
2023/09/06 00:53:25;;;;;;;9.43;4.28;;;;;;;17.74;100.00;101713.81;5065297;28;20151;-63
2023/09/06 00:55:54;;;;;;;7.70;4.38;;;;;;;17.78;100.00;101714.41;5067373;28;20051;-63
2023/09/06 00:58:23;;;;;;;7.72;4.50;;;;;;;17.69;100.00;101718.66;5068639;28;20048;-63
2023/09/06 01:00:52;;;;;;;7.85;4.25;;;;;;;17.73;100.00;101716.59;5070271;28;20094;-63
2023/09/06 01:03:21;;;;;;;8.45;4.55;;;;;;;17.73;100.00;101719.25;5071427;28;20044;-63
2023/09/06 01:05:56;;;;;;;10.25;4.35;;;;;;;17.73;100.00;101716.59;5068737;28;20057;-63
2023/09/06 01:08:32;;;;;;;9.15;4.85;;;;;;;17.71;100.00;101715.84;5065702;28;20727;-63
2023/09/06 01:11:20;;;;;;;10.68;4.55;;;;;;;17.62;100.00;101716.63;5067978;28;20135;-63
2023/09/06 01:13:52;;;;;;;8.02;4.32;;;;;;;17.59;100.00;101725.72;5068061;28;20491;-63
2023/09/06 01:16:26;;;;;;;7.63;4.53;;;;;;;17.56;100.00;101723.28;5067705;28;20143;-63
2023/09/06 01:18:55;;;;;;;6.63;4.15;;;;;;;17.56;100.00;101724.13;5065750;28;20135;-62
2023/09/06 01:21:26;;;;;;;8.02;4.05;;;;;;;17.49;100.00;101730.94;5067936;28;20075;-63
2023/09/06 01:23:57;;;;;;;9.20;4.20;;;;;;;17.43;100.00;101734.06;5066118;28;20262;-62
2023/09/06 01:26:26;;;;;;;7.28;4.25;;;;;;;17.40;100.00;101729.84;5067262;28;20045;-63
2023/09/06 01:28:56;;;;;;;8.50;4.35;;;;;;;17.37;100.00;101738.06;5067482;28;20052;-63
2023/09/06 01:31:24;;;;;;;7.20;4.40;;;;;;;17.29;100.00;101735.19;5067699;28;20135;-62
2023/09/06 01:33:53;;;;;;;8.45;4.82;;;;;;;17.29;100.00;101737.84;5068781;28;20036;-63
2023/09/06 01:36:21;;;;;;;6.38;4.00;;;;;;;17.31;100.00;101735.88;5067444;28;20042;-63
2023/09/06 01:38:51;;;;;;;10.15;4.25;;;;;;;17.35;100.00;101739.16;5067311;28;20616;-62
2023/09/06 01:41:21;;;;;;;8.50;4.35;;;;;;;17.28;100.00;101738.78;5068855;28;20507;-62
2023/09/06 01:43:50;;;;;;;8.95;4.97;;;;;;;17.23;100.00;101738.31;5067348;28;20047;-62
2023/09/06 01:46:19;;;;;;;9.77;4.70;;;;;;;17.17;100.00;101734.31;5067656;28;20061;-62
2023/09/06 01:48:48;;;;;;;6.43;4.28;;;;;;;17.15;100.00;101732.75;5066767;28;20480;-62
2023/09/06 01:51:17;;;;;;;10.80;4.38;;;;;;;17.12;100.00;101738.31;5067571;28;20529;-62
2023/09/06 01:53:45;;;;;;;6.97;4.28;;;;;;;17.13;100.00;101745.34;5064893;28;20056;-62
2023/09/06 01:56:14;;;;;;;8.43;4.25;;;;;;;17.06;100.00;101739.66;5070343;28;20058;-62
2023/09/06 01:58:44;;;;;;;8.10;4.53;;;;;;;17.05;100.00;101736.13;5070909;28;20476;-62
2023/09/06 02:01:14;;;;;;;7.07;4.57;;;;;;;17.05;100.00;101735.31;5070565;28;20124;-62
2023/09/06 02:03:42;;;;;;;8.65;4.38;;;;;;;16.99;100.00;101731.31;5070785;28;20046;-61
2023/09/06 02:06:11;;;;;;;9.07;4.72;;;;;;;16.96;100.00;101731.56;5070764;28;20040;-62
2023/09/06 02:08:40;;;;;;;9.25;4.93;;;;;;;16.99;100.00;101736.63;5071168;28;20049;-62
2023/09/06 02:11:08;;;;;;;8.65;5.05;;;;;;;16.90;100.00;101746.16;5067080;28;20638;-62
2023/09/06 02:13:37;;;;;;;8.48;4.55;;;;;;;16.87;100.00;101750.84;5066890;28;20546;-61
2023/09/06 02:16:07;;;;;;;8.13;4.80;;;;;;;16.84;100.00;101749.28;5067522;28;20148;-61
2023/09/06 02:18:35;;;;;;;12.02;4.90;;;;;;;16.83;100.00;101752.03;5066658;28;20496;-62
2023/09/06 02:21:04;;;;;;;8.88;4.63;;;;;;;16.80;100.00;101749.63;5067460;28;20040;-61
2023/09/06 02:23:34;;;;;;;8.40;4.60;;;;;;;16.81;100.00;101756.63;5064624;28;20086;-62
2023/09/06 02:26:04;;;;;;;9.20;5.00;;;;;;;16.79;100.00;101755.91;5070246;28;20568;-62
2023/09/06 02:28:34;;;;;;;9.57;5.47;;;;;;;16.77;100.00;101755.16;5065632;28;20053;-62
2023/09/06 02:31:03;;;;;;;9.82;5.45;;;;;;;16.72;100.00;101759.03;5069155;28;20083;-62
2023/09/06 02:33:33;;;;;;;7.53;4.75;;;;;;;16.66;100.00;101759.50;5069687;28;20045;-61
2023/09/06 02:36:02;;;;;;;8.80;5.50;;;;;;;16.71;100.00;101761.81;5066998;28;20048;-61
2023/09/06 02:38:30;;;;;;;8.85;4.72;;;;;;;16.68;100.00;101765.53;5064298;28;20048;-61
2023/09/06 02:40:58;;;;;;;9.00;5.03;;;;;;;16.66;100.00;101766.59;5065837;28;20049;-62
2023/09/06 02:43:27;;;;;;;7.55;5.10;;;;;;;16.60;100.00;101767.94;5066940;28;20817;-61
2023/09/06 02:46:02;;;;;;;8.02;4.82;;;;;;;16.55;100.00;101775.38;5067018;28;20049;-62
2023/09/06 02:48:33;;;;;;;9.90;5.78;;;;;;;16.60;100.00;101769.75;5066284;28;20464;-62
2023/09/06 02:51:07;;;;;;;8.73;4.93;;;;;;;16.56;100.00;101774.44;5067125;28;20491;-61
2023/09/06 02:53:43;;;;;;;8.98;4.97;;;;;;;16.56;100.00;101774.44;5064418;28;20044;-61
2023/09/06 02:56:13;;;;;;;8.00;4.45;;;;;;;16.56;100.00;101777.09;5066970;28;20422;-61
2023/09/06 02:58:42;;;;;;;7.07;4.78;;;;;;;16.48;100.00;101774.16;5068069;28;20106;-62
2023/09/06 03:01:19;;;;;;;7.57;4.95;;;;;;;16.39;100.00;101773.06;5067035;28;20045;-61
2023/09/06 03:03:53;;;;;;;7.50;4.82;;;;;;;16.44;100.00;101776.19;5067539;28;20048;-61
2023/09/06 03:06:32;;;;;;;9.30;4.85;;;;;;;16.43;100.00;101774.53;5071660;28;20098;-62
2023/09/06 03:09:06;;;;;;;9.50;5.22;;;;;;;16.44;100.00;101778.84;5068212;28;20052;-61
2023/09/06 03:11:35;;;;;;;8.45;4.75;;;;;;;16.41;100.00;101779.09;5072976;28;20055;-61
2023/09/06 03:14:05;;;;;;;8.10;5.00;;;;;;;16.32;100.00;101772.69;5070643;28;20547;-61
2023/09/06 03:16:38;;;;;;;7.72;4.70;;;;;;;16.35;100.00;101780.41;5070880;28;20090;-61
2023/09/06 03:19:09;;;;;;;8.82;4.93;;;;;;;16.29;100.00;101774.72;5071692;28;20087;-61
2023/09/06 03:21:40;;;;;;;9.55;5.30;;;;;;;16.25;100.00;101775.91;5068392;28;20119;-61
2023/09/06 03:24:12;;;;;;;9.13;4.97;;;;;;;16.24;100.00;101775.06;5069473;28;20044;-61
2023/09/06 03:26:43;;;;;;;8.02;4.47;;;;;;;16.19;100.00;101774.56;5072342;28;20434;-61
2023/09/06 03:29:15;;;;;;;9.40;5.23;;;;;;;16.23;100.00;101784.81;5070480;28;20040;-61
2023/09/06 03:31:44;;;;;;;8.30;4.80;;;;;;;16.23;100.00;101786.63;5067686;28;20488;-61
2023/09/06 03:34:15;;;;;;;9.15;4.28;;;;;;;16.18;100.00;101784.34;5069904;28;20466;-61
2023/09/06 03:36:51;;;;;;;7.18;4.50;;;;;;;16.17;100.00;101781.75;5068196;28;20083;-61
2023/09/06 03:39:20;;;;;;;8.63;4.32;;;;;;;16.16;100.00;101786.25;5069274;28;20106;-61
2023/09/06 03:41:48;;;;;;;8.35;4.80;;;;;;;16.17;100.00;101779.97;5069174;28;20100;-61
2023/09/06 03:44:17;;;;;;;9.40;5.07;;;;;;;16.09;100.00;101778.84;5070056;28;20549;-61
2023/09/06 03:46:46;;;;;;;7.43;4.80;;;;;;;16.07;100.00;101783.44;5068090;28;20055;-61
2023/09/06 03:49:15;;;;;;;8.15;4.75;;;;;;;16.00;100.00;101786.50;5069821;28;20056;-61
2023/09/06 03:51:45;;;;;;;9.55;5.15;;;;;;;15.99;100.00;101790.16;5073130;28;20075;-61
2023/09/06 03:54:17;;;;;;;7.90;4.50;;;;;;;16.01;100.00;101785.56;5073098;28;20048;-61
2023/09/06 03:56:45;;;;;;;7.78;4.32;;;;;;;15.97;100.00;101786.75;5070390;28;20059;-61
2023/09/06 03:59:16;;;;;;;7.38;4.30;;;;;;;15.96;100.00;101778.91;5069756;28;20040;-61
2023/09/06 04:01:45;;;;;;;7.80;4.72;;;;;;;15.97;100.00;101786.75;5071249;28;20471;-61
2023/09/06 04:04:13;;;;;;;7.57;4.50;;;;;;;15.96;100.00;101790.34;5071813;28;20055;-61
2023/09/06 04:06:43;;;;;;;8.43;4.70;;;;;;;15.96;100.00;101784.22;5067746;28;20063;-61
2023/09/06 04:09:13;;;;;;;10.68;4.97;;;;;;;15.93;100.00;101787.94;5070372;28;20063;-60
2023/09/06 04:11:42;;;;;;;7.82;4.35;;;;;;;15.97;100.00;101792.06;5072759;28;20047;-60
2023/09/06 04:14:10;;;;;;;7.47;4.40;;;;;;;15.93;100.00;101792.41;5069826;28;20078;-61
2023/09/06 04:16:39;;;;;;;8.40;4.50;;;;;;;15.89;100.00;101787.28;5069635;28;20044;-61
2023/09/06 04:19:08;;;;;;;7.00;4.85;;;;;;;15.83;100.00;101795.72;5071433;28;20383;-61
2023/09/06 04:21:40;;;;;;;8.07;5.00;;;;;;;15.83;100.00;101801.03;5067453;28;20056;-61
2023/09/06 04:24:09;;;;;;;9.48;4.50;;;;;;;15.80;100.00;101798.59;5070696;28;20488;-61
2023/09/06 04:26:39;;;;;;;8.02;4.15;;;;;;;15.81;100.00;101794.13;5068060;28;20375;-61
2023/09/06 04:29:07;;;;;;;7.97;4.82;;;;;;;15.78;100.00;101792.50;5069544;28;20040;-61
2023/09/06 04:31:35;;;;;;;8.88;5.00;;;;;;;15.73;100.00;101799.94;5068381;28;20056;-61
2023/09/06 04:34:04;;;;;;;7.95;4.63;;;;;;;15.71;100.00;101793.91;5069160;28;20503;-61
2023/09/06 04:36:36;;;;;;;7.78;4.40;;;;;;;15.70;100.00;101797.53;5072433;28;20499;-60
2023/09/06 04:39:07;;;;;;;7.97;4.30;;;;;;;15.68;100.00;101797.63;5072224;28;20059;-61
2023/09/06 04:41:36;;;;;;;7.63;4.47;;;;;;;15.71;100.00;101804.53;5070967;28;20052;-60
2023/09/06 04:44:07;;;;;;;9.05;4.20;;;;;;;15.66;100.00;101804.84;5069045;28;20072;-61
2023/09/06 04:46:35;;;;;;;7.28;4.30;;;;;;;15.63;100.00;101804.22;5067771;28;20071;-61
2023/09/06 04:49:04;;;;;;;8.00;4.80;;;;;;;15.58;100.00;101801.88;5068659;28;20131;-61
2023/09/06 04:51:32;;;;;;;10.43;4.78;;;;;;;15.57;100.00;101810.81;5067682;28;20056;-61
2023/09/06 04:54:01;;;;;;;9.63;4.50;;;;;;;15.55;100.00;101799.47;5067466;28;20435;-61
2023/09/06 04:56:31;;;;;;;8.00;4.45;;;;;;;15.59;100.00;101800.09;5067860;28;20048;-61
2023/09/06 04:58:59;;;;;;;9.82;5.07;;;;;;;15.51;100.00;101800.63;5067063;28;20052;-61
2023/09/06 05:01:29;;;;;;;8.52;4.88;;;;;;;15.55;100.00;101804.75;5070476;28;20049;-61
2023/09/06 05:03:58;;;;;;;7.13;4.38;;;;;;;15.51;100.00;101800.63;5071642;28;20131;-61
2023/09/06 05:06:27;;;;;;;7.95;5.10;;;;;;;15.47;100.00;101804.47;5067707;28;20040;-61
2023/09/06 05:08:55;;;;;;;9.57;5.63;;;;;;;15.51;100.00;101812.06;5064652;28;20132;-61
2023/09/06 05:11:23;;;;;;;12.30;6.82;;;;;;;15.44;100.00;101810.81;5067668;28;20052;-61
2023/09/06 05:13:52;;;;;;;9.73;6.50;;;;;;;15.42;100.00;101812.75;5068215;28;20075;-61
2023/09/06 05:16:21;;;;;;;10.88;6.13;;;;;;;15.41;100.00;101815.50;5067787;28;20083;-61
2023/09/06 05:18:52;;;;;;;8.95;6.55;;;;;;;15.42;100.00;101812.75;5070830;28;20076;-61
2023/09/06 05:21:21;;;;;;;9.27;5.93;;;;;;;15.40;100.00;101824.41;5067927;28;20059;-61
2023/09/06 05:23:49;;;;;;;9.88;6.43;;;;;;;15.43;100.00;101826.84;5065952;28;20149;-61
2023/09/06 05:26:18;;;;;;;9.70;6.05;;;;;;;15.37;100.00;101831.59;5068373;28;20060;-61
2023/09/06 05:28:48;;;;;;;8.45;6.03;;;;;;;15.43;100.00;101826.84;5067479;28;20052;-61
2023/09/06 05:31:19;;;;;;;9.43;6.57;;;;;;;15.47;100.00;101836.28;5067699;28;20052;-61
2023/09/06 05:33:47;;;;;;;8.88;5.85;;;;;;;15.42;100.00;101838.38;5065323;28;20056;-61
2023/09/06 05:36:17;;;;;;;10.65;6.43;;;;;;;15.49;100.00;101839.69;5068027;28;20045;-61
2023/09/06 05:38:46;;;;;;;11.30;7.18;;;;;;;15.54;100.00;101838.41;5064727;28;20060;-61
2023/09/06 05:41:14;;;;;;;8.43;5.95;;;;;;;15.47;100.00;101849.53;5065589;28;20150;-61
2023/09/06 05:43:43;;;;;;;11.13;7.03;;;;;;;15.47;100.00;101846.88;5066597;28;20155;-61
2023/09/06 05:46:11;;;;;;;10.50;6.45;;;;;;;15.46;100.00;101855.78;5067489;28;20039;-61
2023/09/06 05:48:43;;;;;;;9.52;6.20;;;;;;;15.51;100.00;101856.31;5066161;28;20106;-60
2023/09/06 05:51:11;;;;;;;9.77;6.57;;;;;;;15.48;100.00;101853.88;5067939;28;20552;-60
2023/09/06 05:53:42;;;;;;;9.13;6.53;;;;;;;15.45;100.00;101857.59;5064251;28;20067;-60
2023/09/06 05:56:11;;;;;;;10.27;6.97;;;;;;;15.49;100.00;101856.41;5066660;28;20036;-60
2023/09/06 05:58:39;;;;;;;11.52;7.35;;;;;;;15.58;100.00;101857.56;5067400;28;20422;-60
2023/09/06 06:01:08;;;;;;;9.98;6.85;;;;;;;15.55;100.00;101861.28;5067599;28;20547;-60
2023/09/06 06:03:37;;;;;;;8.68;6.45;;;;;;;15.61;100.00;101846.75;5066403;28;20041;-60
2023/09/06 06:06:10;;;;;;;11.27;6.93;;;;;;;15.64;100.00;101853.66;5067424;28;20136;-60
2023/09/06 06:08:39;;;;;;;9.25;6.60;;;;;;;15.71;100.00;101855.75;5065011;28;20048;-60
2023/09/06 06:11:09;;;;;;;11.50;6.82;;;;;;;15.72;100.00;101851.31;5067093;28;20152;-60
2023/09/06 06:13:38;;;;;;;9.02;7.15;;;;;;;15.81;100.00;101855.13;5066946;28;20709;-60
2023/09/06 06:16:08;;;;;;;9.45;6.63;;;;;;;15.84;100.00;101854.91;5067765;28;20411;-60
2023/09/06 06:18:37;;;;;;;10.23;7.63;;;;;;;15.95;100.00;101862.97;5066207;28;20041;-60
2023/09/06 06:21:05;;;;;;;10.38;7.00;;;;;;;15.99;100.00;101869.75;5067374;28;20048;-60
2023/09/06 06:23:34;;;;;;;11.23;7.57;;;;;;;16.11;100.00;101870.63;5064315;28;20055;-60
2023/09/06 06:26:02;;;;;;;12.30;7.97;;;;;;;16.20;100.00;101867.31;5068045;28;20040;-60
2023/09/06 06:28:32;;;;;;;11.45;7.32;;;;;;;16.30;100.00;101862.19;5069023;28;20040;-60
2023/09/06 06:31:01;;;;;;;13.05;7.75;;;;;;;16.37;100.00;101865.22;5067752;28;20045;-61
2023/09/06 06:33:29;;;;;;;10.23;7.40;;;;;;;16.49;100.00;101868.78;5067047;28;20406;-61
2023/09/06 06:35:58;;;;;;;10.13;7.60;;;;;;;16.58;100.00;101875.22;5067563;28;20148;-61
2023/09/06 06:38:27;;;;;;;11.18;7.65;;;;;;;16.64;100.00;101865.00;5070897;28;20048;-61
2023/09/06 06:40:55;;;;;;;11.57;7.85;;;;;;;16.79;100.00;101865.66;5072999;28;20052;-61
2023/09/06 06:43:25;;;;;;;12.05;7.80;;;;;;;16.95;100.00;101869.84;5071677;28;20384;-61
2023/09/06 06:45:56;;;;;;;11.93;7.25;;;;;;;17.15;100.00;101876.28;5070292;28;20040;-60
2023/09/06 06:48:24;;;;;;;10.48;7.32;;;;;;;17.29;100.00;101878.72;5073778;28;20407;-61
2023/09/06 06:50:53;;;;;;;10.23;7.00;;;;;;;17.46;100.00;101884.53;5070519;28;20041;-61
2023/09/06 06:53:21;;;;;;;11.77;7.07;;;;;;;17.58;100.00;101886.25;5070069;28;20503;-61
2023/09/06 06:55:53;;;;;;;11.93;6.47;;;;;;;17.89;100.00;101883.81;5073915;28;20071;-61
2023/09/06 06:58:21;;;;;;;8.85;6.53;;;;;;;17.98;100.00;101887.56;5074278;28;20377;-60
2023/09/06 07:00:50;;;;;;;12.43;6.28;;;;;;;18.05;100.00;101888.75;5070093;28;20045;-60
2023/09/06 07:03:20;;;;;;;10.98;6.10;;;;;;;18.30;100.00;101889.47;5069942;28;20044;-60
2023/09/06 07:05:48;;;;;;;9.95;5.93;;;;;;;18.61;100.00;101884.25;5071796;28;20080;-61
2023/09/06 07:08:17;;;;;;;8.32;5.45;;;;;;;18.71;100.00;101887.84;5071276;28;20491;-61
2023/09/06 07:10:46;;;;;;;10.27;5.57;;;;;;;18.86;100.00;101888.41;5070094;28;20067;-61
2023/09/06 07:13:14;;;;;;;8.00;5.53;;;;;;;19.01;100.00;101889.78;5070532;28;20044;-61
2023/09/06 07:15:44;;;;;;;8.98;5.82;;;;;;;19.20;100.00;101886.41;5070105;28;20066;-61
2023/09/06 07:18:12;;;;;;;8.80;5.38;;;;;;;19.40;100.00;101892.69;5069858;28;20043;-61
2023/09/06 07:20:43;;;;;;;8.07;5.15;;;;;;;19.54;100.00;101891.47;5072023;28;20686;-62
2023/09/06 07:23:11;;;;;;;10.27;4.65;;;;;;;19.73;100.00;101893.38;5073692;28;20445;-61
2023/09/06 07:25:40;;;;;;;8.23;5.38;;;;;;;19.88;100.00;101891.22;5070283;28;20106;-62
2023/09/06 07:28:09;;;;;;;9.25;4.63;;;;;;;20.05;100.00;101892.38;5070299;28;20075;-61
2023/09/06 07:30:37;;;;;;;9.52;4.82;;;;;;;20.30;100.00;101895.56;5070314;28;20048;-62
2023/09/06 07:33:06;;;;;;;10.35;4.30;;;;;;;20.44;100.00;101895.13;5070227;28;20056;-62
2023/09/06 07:35:35;;;;;;;10.23;4.53;;;;;;;20.67;100.00;101902.88;5070158;28;20045;-56
2023/09/06 07:38:05;;;;;;;8.50;3.92;;;;;;;20.90;100.00;101903.47;5068267;28;20059;-56
2023/09/06 07:40:33;;;;;;;8.45;4.05;;;;;;;21.05;100.00;101905.69;5068756;28;20405;-56
2023/09/06 07:43:03;;;;;;;6.70;3.50;;;;;;;21.21;100.00;101905.09;5069652;28;20060;-56
2023/09/06 07:45:32;;;;;;;7.75;3.90;;;;;;;21.38;100.00;101907.03;5069948;28;20135;-56
2023/09/06 07:48:03;;;;;;;8.60;3.85;;;;;;;21.61;100.00;101909.38;5068866;28;21135;-56
2023/09/06 07:50:32;;;;;;;7.82;4.00;;;;;;;21.76;100.00;101910.56;5068569;28;20067;-55
2023/09/06 07:53:00;;;;;;;7.60;4.00;;;;;;;21.87;100.00;101911.34;5067844;28;20051;-55
2023/09/06 07:55:30;;;;;;;6.35;3.53;;;;;;;22.06;100.00;101907.72;5068418;28;20053;-55
2023/09/06 07:57:59;;;;;;;8.45;3.53;;;;;;;22.23;100.00;101908.75;5073374;28;20041;-55
2023/09/06 08:00:28;;;;;;;7.00;3.67;;;;;;;22.38;100.00;101909.94;5072983;28;20458;-55
2023/09/06 08:02:57;;;;;;;8.43;3.42;;;;;;;22.54;100.00;101916.47;5072942;28;20127;-55
2023/09/06 08:05:26;;;;;;;7.70;3.60;;;;;;;22.68;100.00;101909.72;5073015;28;20071;-56
2023/09/06 08:07:55;;;;;;;6.18;3.08;;;;;;;22.88;100.00;101908.56;5071524;28;20079;-55
2023/09/06 08:10:23;;;;;;;8.45;3.03;;;;;;;23.02;100.00;101914.38;5068759;28;20082;-55
2023/09/06 08:12:53;;;;;;;9.13;3.22;;;;;;;23.19;100.00;101916.19;5069299;28;20076;-56
2023/09/06 08:15:23;;;;;;;4.82;2.78;;;;;;;23.39;100.00;101913.28;5071672;28;20060;-56
2023/09/06 08:17:51;;;;;;;6.10;3.13;;;;;;;23.62;100.00;101918.97;5072690;28;20039;-55
2023/09/06 08:20:20;;;;;;;4.68;2.58;;;;;;;23.65;100.00;101918.63;5069306;28;20117;-55
2023/09/06 08:22:49;;;;;;;7.25;3.25;;;;;;;23.88;100.00;101918.91;5068993;28;20580;-55
2023/09/06 08:25:19;;;;;;;6.13;3.05;;;;;;;24.02;100.00;101922.81;5071324;28;20067;-56
2023/09/06 08:27:49;;;;;;;5.95;3.08;;;;;;;24.34;100.00;101909.63;5072370;28;20051;-55
2023/09/06 08:30:22;;;;;;;5.60;3.00;;;;;;;24.55;100.00;101914.56;5072697;28;20056;-56
2023/09/06 08:32:51;;;;;;;6.88;2.85;;;;;;;24.72;100.00;101921.66;5072243;28;20137;-55
2023/09/06 08:35:22;;;;;;;6.93;3.13;;;;;;;24.93;100.00;101917.63;5072379;28;20549;-56
2023/09/06 08:37:50;;;;;;;7.20;2.97;;;;;;;24.98;100.00;101926.84;5072283;28;20058;-56
2023/09/06 08:40:21;;;;;;;7.68;3.15;;;;;;;25.20;100.00;101923.66;5072361;28;20047;-56
2023/09/06 08:42:52;;;;;;;5.80;2.88;;;;;;;25.46;100.00;101915.38;5070881;28;20045;-56
2023/09/06 08:45:23;;;;;;;6.03;2.50;;;;;;;25.72;100.00;101917.78;5072167;28;20436;-56
2023/09/06 08:47:52;;;;;;;8.32;3.58;;;;;;;25.68;100.00;101915.63;5070809;28;20494;-56
2023/09/06 08:50:21;;;;;;;6.53;3.28;;;;;;;25.61;100.00;101919.00;5071842;28;20044;-55
2023/09/06 08:52:51;;;;;;;6.80;3.70;;;;;;;25.74;100.00;101915.78;5071950;28;20063;-54
2023/09/06 08:55:20;;;;;;;10.57;4.13;;;;;;;25.98;100.00;101922.06;5071631;28;20056;-56
2023/09/06 08:57:49;;;;;;;8.73;4.00;;;;;;;26.16;100.00;101913.72;5072163;28;20412;-56
2023/09/06 09:00:20;;;;;;;7.57;2.78;;;;;;;26.51;100.00;101922.28;5070318;28;20049;-56
2023/09/06 09:02:50;;;;;;;6.50;3.13;;;;;;;26.72;100.00;101918.09;5071664;28;20048;-56
2023/09/06 09:05:22;;;;;;;8.65;3.20;;;;;;;27.04;100.00;101914.28;5071473;28;20487;-56
2023/09/06 09:07:58;;;;;;;7.47;2.90;;;;;;;27.36;100.00;101914.97;5071241;28;20064;-56
2023/09/06 09:10:28;;;;;;;6.57;3.00;;;;;;;27.55;100.00;101912.75;5071302;28;20048;-56
2023/09/06 09:12:58;;;;;;;8.32;2.90;;;;;;;27.61;100.00;101911.97;5071373;28;20128;-56
2023/09/06 09:15:27;;;;;;;6.07;2.88;;;;;;;27.68;100.00;101907.53;5071068;28;20091;-56
2023/09/06 09:17:58;;;;;;;7.93;3.40;;;;;;;27.71;100.00;101907.13;5071229;28;20048;-55
2023/09/06 09:20:32;;;;;;;6.78;2.92;;;;;;;27.98;100.00;101907.47;5070695;28;20063;-51
2023/09/06 09:23:02;;;;;;;6.40;3.15;;;;;;;28.13;100.00;101910.16;5065563;28;20129;-52
2023/09/06 09:25:33;;;;;;;6.88;2.65;;;;;;;28.30;100.00;101906.16;5067221;28;20507;-53
2023/09/06 09:28:02;;;;;;;7.20;2.78;;;;;;;28.40;100.00;101915.84;5068487;28;20044;-54
2023/09/06 09:30:33;;;;;;;7.13;2.92;;;;;;;28.13;100.00;101910.16;5067613;28;20048;-52
2023/09/06 09:33:05;;;;;;;7.25;3.00;;;;;;;28.14;100.00;101907.28;5067458;28;20824;-54
2023/09/06 09:35:35;;;;;;;5.78;2.63;;;;;;;28.36;97.67;101904.59;5067613;28;20590;-54
2023/09/06 09:38:06;;;;;;;7.80;2.92;;;;;;;28.32;91.81;101909.53;5068042;28;20066;-54
2023/09/06 09:40:36;;;;;;;6.35;2.92;;;;;;;28.46;93.61;101904.25;5068468;28;20044;-55
2023/09/06 09:43:20;;;;;;;7.20;2.90;;;;;;;28.75;93.08;101908.69;5068214;28;20068;-53
2023/09/06 09:45:48;;;;;;;8.48;3.13;;;;;;;28.74;91.09;101908.88;5066568;28;20040;-53
2023/09/06 09:48:20;;;;;;;7.38;2.70;;;;;;;28.96;90.33;101909.69;5068249;28;20044;-54
2023/09/06 09:50:54;;;;;;;7.70;2.83;;;;;;;29.12;87.53;101909.41;5071215;28;20102;-53
2023/09/06 09:53:24;;;;;;;7.25;3.47;;;;;;;29.15;83.74;101903.59;5066765;28;20541;-51
2023/09/06 09:55:55;;;;;;;6.30;3.03;;;;;;;29.36;84.15;101915.41;5067058;28;20143;-53
2023/09/06 09:58:25;;;;;;;8.02;3.15;;;;;;;29.36;81.13;101899.16;5071147;28;20072;-52
2023/09/06 10:00:56;;;;;;;8.23;3.28;;;;;;;29.41;81.33;101902.09;5071147;28;20044;-53
2023/09/06 10:03:31;;;;;;;8.65;3.13;;;;;;;29.80;80.13;101899.75;5068429;28;20044;-53
2023/09/06 10:06:03;;;;;;;7.93;3.20;;;;;;;30.20;81.81;101902.63;5066210;28;20051;-54
2023/09/06 10:08:35;;;;;;;7.20;2.90;;;;;;;30.11;77.86;101891.13;5065860;28;20036;-53
2023/09/06 10:11:06;;;;;;;;;;;;;;;30.43;76.94;101894.13;5070180;28;20492;-49
2023/09/06 10:13:37;;;;;;;7.25;2.88;;;;;;;30.34;76.77;101888.03;5068149;28;19924;-54
2023/09/06 10:16:07;;;;;;;9.02;3.08;;;;;;;30.58;73.40;101890.38;5071925;28;20462;-53
2023/09/06 10:18:38;;;;;;;8.00;3.30;;;;;;;30.53;71.22;101891.00;5070558;28;20072;-52
2023/09/06 10:21:07;;;;;;;7.18;3.10;;;;;;;30.36;72.64;101887.81;5071446;28;20064;-52
2023/09/06 10:23:42;;;;;;;6.43;2.70;;;;;;;30.74;71.43;101884.53;5070314;28;20523;-50
2023/09/06 10:26:10;;;;;;;6.72;3.20;;;;;;;30.76;71.56;101882.44;5072638;28;20067;-53
2023/09/06 10:28:39;;;;;;;6.25;3.13;;;;;;;30.82;68.92;101873.44;5070706;28;20041;-52
2023/09/06 10:31:10;;;;;;;6.53;2.95;;;;;;;30.63;69.45;101882.44;5071380;28;20048;-53
2023/09/06 10:33:56;;;;;;;5.45;2.88;;;;;;;30.91;68.75;101886.81;5070519;28;20488;-53
2023/09/06 10:36:29;;;;;;;6.07;2.80;;;;;;;31.30;65.55;101875.03;5079173;28;20422;-52
2023/09/06 10:39:18;;;;;;;6.20;2.95;;;;;;;31.02;60.65;101876.19;5072249;28;20037;-52
2023/09/06 10:42:16;;;;;;;6.63;3.00;;;;;;;31.01;61.35;101868.22;5071188;28;20053;-52
2023/09/06 10:45:14;;;;;;;8.90;2.88;;;;;;;31.48;61.59;101873.53;5071736;28;20048;-54
2023/09/06 10:47:42;;;;;;;6.80;3.20;;;;;;;31.86;64.42;101872.75;5088290;28;20406;-53
2023/09/06 10:50:17;;;;;;;8.77;3.00;;;;;;;31.85;62.79;101877.38;5074536;28;20068;-54
2023/09/06 10:52:48;;;;;;;9.02;2.83;;;;;;;31.96;63.16;101873.13;5069456;28;20060;-54
2023/09/06 10:55:20;;;;;;;7.38;3.00;;;;;;;31.95;61.29;101870.63;5079176;28;20942;-52
2023/09/06 10:57:54;;;;;;;;;;;;;;;32.25;59.80;101887.19;5071758;28;20044;-52
2023/09/06 11:00:27;;;;;;;7.82;2.97;;;;;;;32.02;61.44;101885.81;5068626;28;19924;-53
2023/09/06 11:03:19;;;;;;;5.85;2.80;;;;;;;32.31;60.54;101877.31;5069745;28;20051;-53
2023/09/06 11:05:55;;;;;;;6.05;2.90;;;;;;;32.42;59.91;101879.31;5078488;28;20144;-53
2023/09/06 11:08:31;;;;;;;5.45;2.55;;;;;;;32.62;58.12;101876.41;5089889;28;20138;-52
2023/09/06 11:11:01;;;;;;;6.78;2.63;;;;;;;32.73;56.73;101872.16;5092351;28;20055;-53
2023/09/06 11:13:32;;;;;;;5.70;2.70;;;;;;;32.99;55.27;101875.69;5090944;28;20047;-52
2023/09/06 11:16:03;;;;;;;6.93;2.90;;;;;;;32.81;54.08;101877.31;5081266;28;20032;-52
2023/09/06 11:18:32;;;;;;;6.60;3.00;;;;;;;32.53;54.52;101864.16;5081283;28;20044;-52
2023/09/06 11:21:03;;;;;;;6.05;3.00;;;;;;;33.22;56.31;101855.94;5084830;28;20119;-55
2023/09/06 11:23:43;;;;;;;7.38;2.80;;;;;;;33.48;53.60;101860.25;5077011;28;20132;-54
2023/09/06 11:26:12;;;;;;;7.13;2.88;;;;;;;33.26;53.47;101864.53;5075606;28;20121;-53
2023/09/06 11:28:42;;;;;;;6.75;2.97;;;;;;;33.78;55.64;101864.09;5080630;28;20729;-54
2023/09/06 11:31:23;;;;;;;7.45;3.17;;;;;;;34.09;52.67;101868.47;5072251;28;20044;-54